13:10
Airports
History
Links
Donate
Help keep this website running!
PayPal
Bitcoin
This page is community maintained. The information is intended for PC simulator navigation or reference.
Always use approved charts for navigation.
SIBD
BENEDITO MUTRAN
BENEDITO MUTRAN (SIBD)
Marabá, Pará, Brazil
(U)
Lat/Lng:5° 45' 31.07" S / 49° 10' 34.14" W
-5.758631 / -49.176151
Elevation:551'ft / 168mMSL
ID / ICAO:SIBD
Runways:1
Longest:12-30
Asphalt 1,094m / 3,591ft
Nearby Weather13:00 GMT 2017-10-17
Nearby weather at SBMA, Maraba located 27.1 nautical miles from SIBD
Altimeter: 29.97
Visibility: 6.2 statute miles
Wind: 5 knots (from 020°)
Temp: 32°c / 90°f
Humidity: 62.8%

METAR: SBMA 171300Z 02005KT 9999 SCT020 SCT100 32/24 Q1015

(Powered by phpweather)
Runway 12 / 30
Dimensions:1094.4 x 21m 3591' x 69'ft
Surface:Asphalt
Runway 12 [A]Runway 30 [B]
Heading:100°TH 280°TH
Lat:
Lng:
5° 45' 27.71"S
49° 10' 51.72"W
5° 45' 34.43"S
49° 10' 16.57"W
User Notes and Comments
5° 45' 31.07" S / 49° 10' 34.14" W
Distance To
Airport ID:
Nearby Airports
4 Frisama Eldorado 26.5 NM
SJHL SSW 208°
(U) Maraba 27.1 NM
SBMA ( WX ) N
4 Fazenda Serra Grande 50.4 NM
SNQE WSW 244°
4 FAZ. Itaipavas 60.5 NM
SIHI SSE 168°
4 Fazenda Furna Azul 60.8 NM
SWUL ESE 121°
(C) CARAJAS 62.0 NM
SBCJ WSW 246°
(U) FAZENDA LAGOA DAS ANTAS 67.3 NM
SNLA SW 214°
VFR Chart
Flight Planning at SkyVector.com